Terminal Aerodrome Forecast
Issued by NWS Cleveland, OH

Home | Current Version | Previous Version | Text Only | Print | Product List | Glossary On
Versions: 1 2 3 4 5 6 7 8 9 10 11 12 13 14 15 16 17 18 19 20
240
FTUS41 KCLE 300529
TAFYNG
TAF
KYNG 300529Z 3006/0106 VRB04KT 6SM BR SKC
      TEMPO 3007/3011 3SM BR BKN019
     FM301100 09005KT P6SM BKN020
     FM301600 09006KT P6SM SCT020 BKN150
     FM302300 09006KT 6SM -RA BR OVC035
     FM010400 12010KT 3SM -RA BR OVC009=

USA.gov is the U.S. government's official web portal to all federal, state and local government web resources and services.